sensor_id;sensor_type;location;lat;lon;timestamp;P1;durP1;ratioP1;P2;durP2;ratioP2
19004;SDS011;9635;52.078;8.648;2023-03-31T00:04:12;11.77;;;2.85;;
19004;SDS011;9635;52.078;8.648;2023-03-31T00:09:15;7.60;;;2.22;;
19004;SDS011;9635;52.078;8.648;2023-03-31T00:14:19;9.25;;;2.95;;
19004;SDS011;9635;52.078;8.648;2023-03-31T00:19:23;6.45;;;1.98;;
19004;SDS011;9635;52.078;8.648;2023-03-31T00:24:29;5.90;;;1.77;;
19004;SDS011;9635;52.078;8.648;2023-03-31T00:29:33;5.80;;;2.22;;
19004;SDS011;9635;52.078;8.648;2023-03-31T00:34:37;6.82;;;2.00;;
19004;SDS011;9635;52.078;8.648;2023-03-31T00:39:41;7.75;;;2.03;;
19004;SDS011;9635;52.078;8.648;2023-03-31T00:50:25;5.55;;;1.45;;
19004;SDS011;9635;52.078;8.648;2023-03-31T00:55:33;6.57;;;1.85;;
19004;SDS011;9635;52.078;8.648;2023-03-31T01:00:39;5.63;;;1.20;;
19004;SDS011;9635;52.078;8.648;2023-03-31T01:05:44;4.82;;;1.10;;
19004;SDS011;9635;52.078;8.648;2023-03-31T01:10:51;5.22;;;1.33;;
19004;SDS011;9635;52.078;8.648;2023-03-31T01:15:56;4.35;;;1.30;;
19004;SDS011;9635;52.078;8.648;2023-03-31T01:21:10;5.45;;;1.75;;
19004;SDS011;9635;52.078;8.648;2023-03-31T01:26:42;6.32;;;1.30;;
19004;SDS011;9635;52.078;8.648;2023-03-31T01:38:07;6.10;;;1.77;;
19004;SDS011;9635;52.078;8.648;2023-03-31T01:43:38;4.05;;;1.70;;
19004;SDS011;9635;52.078;8.648;2023-03-31T01:48:46;8.30;;;1.92;;
19004;SDS011;9635;52.078;8.648;2023-03-31T01:53:58;5.22;;;1.60;;
19004;SDS011;9635;52.078;8.648;2023-03-31T01:59:09;6.65;;;1.77;;
19004;SDS011;9635;52.078;8.648;2023-03-31T02:04:15;6.00;;;1.80;;
19004;SDS011;9635;52.078;8.648;2023-03-31T02:09:22;6.03;;;1.70;;
19004;SDS011;9635;52.078;8.648;2023-03-31T02:14:31;6.95;;;1.90;;
19004;SDS011;9635;52.078;8.648;2023-03-31T02:19:36;7.35;;;2.10;;
19004;SDS011;9635;52.078;8.648;2023-03-31T02:24:41;8.02;;;1.85;;
19004;SDS011;9635;52.078;8.648;2023-03-31T02:29:48;8.82;;;1.80;;
19004;SDS011;9635;52.078;8.648;2023-03-31T02:34:52;6.32;;;1.45;;
19004;SDS011;9635;52.078;8.648;2023-03-31T02:39:56;14.15;;;1.90;;
19004;SDS011;9635;52.078;8.648;2023-03-31T02:45:05;5.28;;;1.77;;
19004;SDS011;9635;52.078;8.648;2023-03-31T02:50:30;6.25;;;1.23;;
19004;SDS011;9635;52.078;8.648;2023-03-31T02:55:46;5.82;;;1.17;;
19004;SDS011;9635;52.078;8.648;2023-03-31T03:01:06;6.63;;;1.50;;
19004;SDS011;9635;52.078;8.648;2023-03-31T03:06:22;5.65;;;1.80;;
19004;SDS011;9635;52.078;8.648;2023-03-31T03:11:45;8.20;;;1.48;;
19004;SDS011;9635;52.078;8.648;2023-03-31T03:16:58;10.05;;;1.60;;
19004;SDS011;9635;52.078;8.648;2023-03-31T03:22:05;6.50;;;1.70;;
19004;SDS011;9635;52.078;8.648;2023-03-31T03:27:09;5.30;;;1.63;;
19004;SDS011;9635;52.078;8.648;2023-03-31T03:32:13;10.80;;;1.35;;
19004;SDS011;9635;52.078;8.648;2023-03-31T03:37:16;7.10;;;1.25;;
19004;SDS011;9635;52.078;8.648;2023-03-31T03:42:19;6.75;;;1.20;;
19004;SDS011;9635;52.078;8.648;2023-03-31T03:47:23;7.90;;;1.33;;
19004;SDS011;9635;52.078;8.648;2023-03-31T03:52:26;6.63;;;1.45;;
19004;SDS011;9635;52.078;8.648;2023-03-31T03:57:29;6.43;;;2.17;;
19004;SDS011;9635;52.078;8.648;2023-03-31T04:02:33;10.40;;;2.17;;
19004;SDS011;9635;52.078;8.648;2023-03-31T04:07:36;9.73;;;2.10;;
19004;SDS011;9635;52.078;8.648;2023-03-31T04:12:39;7.68;;;1.90;;
19004;SDS011;9635;52.078;8.648;2023-03-31T04:17:43;7.78;;;2.15;;
19004;SDS011;9635;52.078;8.648;2023-03-31T04:22:51;10.02;;;2.65;;
19004;SDS011;9635;52.078;8.648;2023-03-31T04:27:55;8.15;;;2.35;;
19004;SDS011;9635;52.078;8.648;2023-03-31T04:33:00;9.25;;;2.03;;
19004;SDS011;9635;52.078;8.648;2023-03-31T04:38:04;12.60;;;2.63;;
19004;SDS011;9635;52.078;8.648;2023-03-31T04:43:07;8.98;;;3.55;;
19004;SDS011;9635;52.078;8.648;2023-03-31T04:48:11;9.95;;;2.85;;
19004;SDS011;9635;52.078;8.648;2023-03-31T04:53:14;5.28;;;2.58;;
19004;SDS011;9635;52.078;8.648;2023-03-31T04:58:17;9.93;;;3.42;;
19004;SDS011;9635;52.078;8.648;2023-03-31T05:03:21;13.20;;;3.13;;
19004;SDS011;9635;52.078;8.648;2023-03-31T05:08:24;9.50;;;2.80;;
19004;SDS011;9635;52.078;8.648;2023-03-31T05:13:27;15.32;;;3.15;;
19004;SDS011;9635;52.078;8.648;2023-03-31T05:18:32;10.85;;;3.40;;
19004;SDS011;9635;52.078;8.648;2023-03-31T05:23:34;10.70;;;2.30;;
19004;SDS011;9635;52.078;8.648;2023-03-31T05:28:37;9.77;;;2.08;;
19004;SDS011;9635;52.078;8.648;2023-03-31T05:33:42;9.30;;;2.25;;
19004;SDS011;9635;52.078;8.648;2023-03-31T05:38:45;7.40;;;2.55;;
19004;SDS011;9635;52.078;8.648;2023-03-31T05:43:48;9.07;;;2.75;;
19004;SDS011;9635;52.078;8.648;2023-03-31T05:48:52;10.05;;;2.50;;
19004;SDS011;9635;52.078;8.648;2023-03-31T05:53:55;6.50;;;1.98;;
19004;SDS011;9635;52.078;8.648;2023-03-31T05:58:58;9.50;;;2.80;;
19004;SDS011;9635;52.078;8.648;2023-03-31T06:04:02;9.50;;;3.28;;
19004;SDS011;9635;52.078;8.648;2023-03-31T06:09:05;14.40;;;2.17;;
19004;SDS011;9635;52.078;8.648;2023-03-31T06:14:08;5.53;;;1.73;;
19004;SDS011;9635;52.078;8.648;2023-03-31T06:19:12;7.82;;;2.35;;
19004;SDS011;9635;52.078;8.648;2023-03-31T06:24:15;5.80;;;1.55;;
19004;SDS011;9635;52.078;8.648;2023-03-31T06:29:18;6.80;;;1.67;;
19004;SDS011;9635;52.078;8.648;2023-03-31T06:34:22;6.40;;;2.00;;
19004;SDS011;9635;52.078;8.648;2023-03-31T06:39:25;9.30;;;2.00;;
19004;SDS011;9635;52.078;8.648;2023-03-31T06:44:29;6.03;;;1.90;;
19004;SDS011;9635;52.078;8.648;2023-03-31T06:49:33;8.63;;;1.77;;
19004;SDS011;9635;52.078;8.648;2023-03-31T06:54:36;4.30;;;1.50;;
19004;SDS011;9635;52.078;8.648;2023-03-31T06:59:38;8.20;;;2.03;;
19004;SDS011;9635;52.078;8.648;2023-03-31T07:04:43;12.15;;;2.83;;
19004;SDS011;9635;52.078;8.648;2023-03-31T07:09:46;12.38;;;3.80;;
19004;SDS011;9635;52.078;8.648;2023-03-31T07:14:48;13.02;;;2.65;;
19004;SDS011;9635;52.078;8.648;2023-03-31T07:19:53;10.57;;;2.20;;
19004;SDS011;9635;52.078;8.648;2023-03-31T07:24:56;7.72;;;2.08;;
19004;SDS011;9635;52.078;8.648;2023-03-31T07:29:58;7.15;;;1.95;;
19004;SDS011;9635;52.078;8.648;2023-03-31T07:35:03;8.02;;;1.70;;
19004;SDS011;9635;52.078;8.648;2023-03-31T07:40:07;6.13;;;2.63;;
19004;SDS011;9635;52.078;8.648;2023-03-31T07:45:11;5.68;;;1.95;;
19004;SDS011;9635;52.078;8.648;2023-03-31T07:50:16;9.68;;;3.63;;
19004;SDS011;9635;52.078;8.648;2023-03-31T07:55:21;4.28;;;1.33;;
19004;SDS011;9635;52.078;8.648;2023-03-31T08:00:26;12.10;;;4.32;;
19004;SDS011;9635;52.078;8.648;2023-03-31T08:05:30;15.98;;;3.00;;
19004;SDS011;9635;52.078;8.648;2023-03-31T08:10:33;3.50;;;1.13;;
19004;SDS011;9635;52.078;8.648;2023-03-31T08:15:36;16.35;;;3.28;;
19004;SDS011;9635;52.078;8.648;2023-03-31T08:20:40;11.82;;;2.58;;
19004;SDS011;9635;52.078;8.648;2023-03-31T08:25:43;12.27;;;3.75;;
19004;SDS011;9635;52.078;8.648;2023-03-31T08:30:46;4.57;;;1.90;;
19004;SDS011;9635;52.078;8.648;2023-03-31T08:35:50;2.35;;;1.52;;
19004;SDS011;9635;52.078;8.648;2023-03-31T08:40:57;7.80;;;2.35;;
19004;SDS011;9635;52.078;8.648;2023-03-31T08:46:01;7.25;;;1.92;;
19004;SDS011;9635;52.078;8.648;2023-03-31T08:51:10;8.10;;;2.55;;
19004;SDS011;9635;52.078;8.648;2023-03-31T08:56:19;11.40;;;3.10;;
19004;SDS011;9635;52.078;8.648;2023-03-31T09:01:26;7.75;;;2.15;;
19004;SDS011;9635;52.078;8.648;2023-03-31T09:06:55;1.33;;;0.90;;
19004;SDS011;9635;52.078;8.648;2023-03-31T09:12:09;4.22;;;1.10;;
19004;SDS011;9635;52.078;8.648;2023-03-31T09:17:17;5.43;;;1.58;;
19004;SDS011;9635;52.078;8.648;2023-03-31T09:22:26;2.40;;;1.00;;
19004;SDS011;9635;52.078;8.648;2023-03-31T09:27:33;4.00;;;0.90;;
19004;SDS011;9635;52.078;8.648;2023-03-31T09:32:37;2.85;;;0.77;;
19004;SDS011;9635;52.078;8.648;2023-03-31T09:37:42;6.15;;;0.90;;
19004;SDS011;9635;52.078;8.648;2023-03-31T09:42:46;2.85;;;1.00;;
19004;SDS011;9635;52.078;8.648;2023-03-31T09:47:53;5.43;;;1.38;;
19004;SDS011;9635;52.078;8.648;2023-03-31T09:52:59;2.78;;;0.88;;
19004;SDS011;9635;52.078;8.648;2023-03-31T09:58:06;2.40;;;1.23;;
19004;SDS011;9635;52.078;8.648;2023-03-31T10:03:13;6.03;;;1.17;;
19004;SDS011;9635;52.078;8.648;2023-03-31T10:08:21;3.22;;;1.42;;
19004;SDS011;9635;52.078;8.648;2023-03-31T10:13:28;5.65;;;1.70;;
19004;SDS011;9635;52.078;8.648;2023-03-31T10:18:38;3.78;;;1.45;;
19004;SDS011;9635;52.078;8.648;2023-03-31T10:23:44;4.93;;;1.02;;
19004;SDS011;9635;52.078;8.648;2023-03-31T10:28:49;5.15;;;0.90;;
19004;SDS011;9635;52.078;8.648;2023-03-31T10:33:55;3.65;;;1.20;;
19004;SDS011;9635;52.078;8.648;2023-03-31T10:39:03;2.67;;;1.15;;
19004;SDS011;9635;52.078;8.648;2023-03-31T10:44:22;4.47;;;1.58;;
19004;SDS011;9635;52.078;8.648;2023-03-31T10:49:36;2.67;;;1.10;;
19004;SDS011;9635;52.078;8.648;2023-03-31T10:54:46;3.70;;;1.17;;
19004;SDS011;9635;52.078;8.648;2023-03-31T10:59:57;3.53;;;1.00;;
19004;SDS011;9635;52.078;8.648;2023-03-31T11:05:10;3.83;;;1.20;;
19004;SDS011;9635;52.078;8.648;2023-03-31T11:10:21;5.78;;;1.63;;
19004;SDS011;9635;52.078;8.648;2023-03-31T11:15:37;5.13;;;1.67;;
19004;SDS011;9635;52.078;8.648;2023-03-31T11:20:48;5.35;;;1.38;;
19004;SDS011;9635;52.078;8.648;2023-03-31T11:25:59;4.45;;;1.55;;
19004;SDS011;9635;52.078;8.648;2023-03-31T11:31:11;6.63;;;1.70;;
19004;SDS011;9635;52.078;8.648;2023-03-31T11:36:38;5.75;;;1.58;;
19004;SDS011;9635;52.078;8.648;2023-03-31T11:41:56;6.10;;;1.80;;
19004;SDS011;9635;52.078;8.648;2023-03-31T11:47:02;4.13;;;1.70;;
19004;SDS011;9635;52.078;8.648;2023-03-31T11:52:12;7.07;;;2.28;;
19004;SDS011;9635;52.078;8.648;2023-03-31T11:57:19;6.70;;;2.42;;
19004;SDS011;9635;52.078;8.648;2023-03-31T12:02:30;5.05;;;2.15;;
19004;SDS011;9635;52.078;8.648;2023-03-31T12:07:40;4.60;;;1.98;;
19004;SDS011;9635;52.078;8.648;2023-03-31T12:12:52;8.02;;;2.08;;
19004;SDS011;9635;52.078;8.648;2023-03-31T12:17:58;5.50;;;2.65;;
19004;SDS011;9635;52.078;8.648;2023-03-31T12:23:05;9.80;;;2.15;;
19004;SDS011;9635;52.078;8.648;2023-03-31T12:28:16;6.30;;;1.85;;
19004;SDS011;9635;52.078;8.648;2023-03-31T12:33:21;10.73;;;2.60;;
19004;SDS011;9635;52.078;8.648;2023-03-31T12:38:32;9.02;;;2.50;;
19004;SDS011;9635;52.078;8.648;2023-03-31T12:43:51;6.10;;;2.47;;
19004;SDS011;9635;52.078;8.648;2023-03-31T12:49:10;11.85;;;3.08;;
19004;SDS011;9635;52.078;8.648;2023-03-31T12:54:42;7.68;;;2.92;;
19004;SDS011;9635;52.078;8.648;2023-03-31T13:00:14;5.22;;;2.25;;
19004;SDS011;9635;52.078;8.648;2023-03-31T13:10:52;2.03;;;1.05;;
19004;SDS011;9635;52.078;8.648;2023-03-31T13:16:00;6.18;;;1.20;;
19004;SDS011;9635;52.078;8.648;2023-03-31T13:21:04;2.28;;;1.05;;
19004;SDS011;9635;52.078;8.648;2023-03-31T13:26:23;3.08;;;1.40;;
19004;SDS011;9635;52.078;8.648;2023-03-31T13:37:20;3.88;;;1.17;;
19004;SDS011;9635;52.078;8.648;2023-03-31T13:48:17;10.07;;;1.70;;
19004;SDS011;9635;52.078;8.648;2023-03-31T13:53:38;10.18;;;2.38;;
19004;SDS011;9635;52.078;8.648;2023-03-31T14:04:54;8.88;;;2.40;;
19004;SDS011;9635;52.078;8.648;2023-03-31T14:10:09;7.05;;;2.42;;
19004;SDS011;9635;52.078;8.648;2023-03-31T14:15:23;3.28;;;1.33;;
19004;SDS011;9635;52.078;8.648;2023-03-31T14:20:28;4.90;;;1.55;;
19004;SDS011;9635;52.078;8.648;2023-03-31T14:25:42;8.13;;;1.55;;
19004;SDS011;9635;52.078;8.648;2023-03-31T14:30:52;5.00;;;1.05;;
19004;SDS011;9635;52.078;8.648;2023-03-31T14:36:07;6.05;;;1.23;;
19004;SDS011;9635;52.078;8.648;2023-03-31T14:41:18;2.70;;;1.10;;
19004;SDS011;9635;52.078;8.648;2023-03-31T14:46:30;3.47;;;1.45;;
19004;SDS011;9635;52.078;8.648;2023-03-31T14:51:41;3.42;;;1.20;;
19004;SDS011;9635;52.078;8.648;2023-03-31T14:56:49;6.85;;;1.73;;
19004;SDS011;9635;52.078;8.648;2023-03-31T15:01:55;6.97;;;1.30;;
19004;SDS011;9635;52.078;8.648;2023-03-31T15:07:00;3.83;;;1.60;;
19004;SDS011;9635;52.078;8.648;2023-03-31T15:12:09;9.95;;;1.85;;
19004;SDS011;9635;52.078;8.648;2023-03-31T15:17:18;5.30;;;1.70;;
19004;SDS011;9635;52.078;8.648;2023-03-31T15:22:23;3.70;;;1.52;;
19004;SDS011;9635;52.078;8.648;2023-03-31T15:27:31;5.10;;;1.55;;
19004;SDS011;9635;52.078;8.648;2023-03-31T15:32:38;6.10;;;1.80;;
19004;SDS011;9635;52.078;8.648;2023-03-31T15:37:43;5.93;;;1.63;;
19004;SDS011;9635;52.078;8.648;2023-03-31T15:42:49;2.92;;;1.20;;
19004;SDS011;9635;52.078;8.648;2023-03-31T15:48:18;8.50;;;1.40;;
19004;SDS011;9635;52.078;8.648;2023-03-31T15:53:27;6.13;;;1.45;;
19004;SDS011;9635;52.078;8.648;2023-03-31T16:03:57;8.38;;;1.52;;
19004;SDS011;9635;52.078;8.648;2023-03-31T16:09:01;10.55;;;2.05;;
19004;SDS011;9635;52.078;8.648;2023-03-31T16:14:14;5.05;;;1.63;;
19004;SDS011;9635;52.078;8.648;2023-03-31T16:24:27;5.70;;;1.70;;
19004;SDS011;9635;52.078;8.648;2023-03-31T16:29:33;5.15;;;1.58;;
19004;SDS011;9635;52.078;8.648;2023-03-31T16:39:59;5.25;;;2.10;;
19004;SDS011;9635;52.078;8.648;2023-03-31T16:45:04;6.82;;;2.30;;
19004;SDS011;9635;52.078;8.648;2023-03-31T16:50:10;6.43;;;1.80;;
19004;SDS011;9635;52.078;8.648;2023-03-31T16:55:15;4.97;;;1.75;;
19004;SDS011;9635;52.078;8.648;2023-03-31T17:00:20;5.03;;;1.90;;
19004;SDS011;9635;52.078;8.648;2023-03-31T17:05:23;6.03;;;2.30;;
19004;SDS011;9635;52.078;8.648;2023-03-31T17:10:26;6.80;;;2.13;;
19004;SDS011;9635;52.078;8.648;2023-03-31T17:20:35;8.60;;;2.38;;
19004;SDS011;9635;52.078;8.648;2023-03-31T17:25:38;5.55;;;2.00;;
19004;SDS011;9635;52.078;8.648;2023-03-31T17:35:48;5.32;;;1.65;;
19004;SDS011;9635;52.078;8.648;2023-03-31T17:40:50;6.47;;;2.10;;
19004;SDS011;9635;52.078;8.648;2023-03-31T17:46:00;5.72;;;2.47;;
19004;SDS011;9635;52.078;8.648;2023-03-31T17:51:04;5.75;;;1.90;;
19004;SDS011;9635;52.078;8.648;2023-03-31T17:56:08;6.88;;;1.85;;
19004;SDS011;9635;52.078;8.648;2023-03-31T18:06:14;6.40;;;1.40;;
19004;SDS011;9635;52.078;8.648;2023-03-31T18:11:18;4.22;;;1.70;;
19004;SDS011;9635;52.078;8.648;2023-03-31T18:16:22;2.15;;;1.05;;
19004;SDS011;9635;52.078;8.648;2023-03-31T18:21:25;2.17;;;0.85;;
19004;SDS011;9635;52.078;8.648;2023-03-31T18:26:28;6.95;;;1.55;;
19004;SDS011;9635;52.078;8.648;2023-03-31T18:31:32;6.68;;;0.82;;
19004;SDS011;9635;52.078;8.648;2023-03-31T18:36:35;7.45;;;1.23;;
19004;SDS011;9635;52.078;8.648;2023-03-31T18:41:38;5.45;;;0.98;;
19004;SDS011;9635;52.078;8.648;2023-03-31T18:46:47;3.83;;;1.38;;
19004;SDS011;9635;52.078;8.648;2023-03-31T18:51:50;3.00;;;1.23;;
19004;SDS011;9635;52.078;8.648;2023-03-31T18:56:53;3.08;;;0.90;;
19004;SDS011;9635;52.078;8.648;2023-03-31T19:01:58;3.38;;;0.90;;
19004;SDS011;9635;52.078;8.648;2023-03-31T19:07:01;3.33;;;1.40;;
19004;SDS011;9635;52.078;8.648;2023-03-31T19:12:04;2.17;;;1.10;;
19004;SDS011;9635;52.078;8.648;2023-03-31T19:17:09;4.25;;;1.17;;
19004;SDS011;9635;52.078;8.648;2023-03-31T19:22:12;11.07;;;1.38;;
19004;SDS011;9635;52.078;8.648;2023-03-31T19:27:15;6.60;;;1.23;;
19004;SDS011;9635;52.078;8.648;2023-03-31T19:32:19;4.65;;;1.13;;
19004;SDS011;9635;52.078;8.648;2023-03-31T19:37:22;3.28;;;1.20;;
19004;SDS011;9635;52.078;8.648;2023-03-31T19:42:26;4.05;;;1.15;;
19004;SDS011;9635;52.078;8.648;2023-03-31T19:47:30;4.28;;;1.50;;
19004;SDS011;9635;52.078;8.648;2023-03-31T19:52:33;4.05;;;1.83;;
19004;SDS011;9635;52.078;8.648;2023-03-31T19:57:36;5.15;;;1.42;;
19004;SDS011;9635;52.078;8.648;2023-03-31T20:02:41;4.50;;;1.58;;
19004;SDS011;9635;52.078;8.648;2023-03-31T20:07:44;4.53;;;1.60;;
19004;SDS011;9635;52.078;8.648;2023-03-31T20:12:46;4.10;;;1.20;;
19004;SDS011;9635;52.078;8.648;2023-03-31T20:17:53;3.45;;;1.40;;
19004;SDS011;9635;52.078;8.648;2023-03-31T20:22:57;3.42;;;1.40;;
19004;SDS011;9635;52.078;8.648;2023-03-31T20:28:00;5.20;;;1.25;;
19004;SDS011;9635;52.078;8.648;2023-03-31T20:33:04;3.63;;;1.77;;
19004;SDS011;9635;52.078;8.648;2023-03-31T20:38:07;4.22;;;1.70;;
19004;SDS011;9635;52.078;8.648;2023-03-31T20:43:10;5.32;;;2.00;;
19004;SDS011;9635;52.078;8.648;2023-03-31T20:48:14;6.20;;;2.13;;
19004;SDS011;9635;52.078;8.648;2023-03-31T20:53:18;7.22;;;1.80;;
19004;SDS011;9635;52.078;8.648;2023-03-31T20:58:20;4.00;;;1.90;;
19004;SDS011;9635;52.078;8.648;2023-03-31T21:03:25;4.90;;;2.10;;
19004;SDS011;9635;52.078;8.648;2023-03-31T21:08:27;4.57;;;1.88;;
19004;SDS011;9635;52.078;8.648;2023-03-31T21:13:30;6.00;;;2.70;;
19004;SDS011;9635;52.078;8.648;2023-03-31T21:18:35;4.07;;;2.05;;
19004;SDS011;9635;52.078;8.648;2023-03-31T21:23:38;4.90;;;2.40;;
19004;SDS011;9635;52.078;8.648;2023-03-31T21:28:41;7.45;;;2.40;;
19004;SDS011;9635;52.078;8.648;2023-03-31T21:33:46;8.88;;;2.78;;
19004;SDS011;9635;52.078;8.648;2023-03-31T21:38:49;8.32;;;2.97;;
19004;SDS011;9635;52.078;8.648;2023-03-31T21:43:54;5.70;;;2.45;;
19004;SDS011;9635;52.078;8.648;2023-03-31T21:49:03;4.43;;;2.88;;
19004;SDS011;9635;52.078;8.648;2023-03-31T21:54:06;7.10;;;3.42;;
19004;SDS011;9635;52.078;8.648;2023-03-31T21:59:09;7.88;;;2.80;;
19004;SDS011;9635;52.078;8.648;2023-03-31T22:04:13;4.88;;;2.70;;
19004;SDS011;9635;52.078;8.648;2023-03-31T22:09:16;6.60;;;3.03;;
19004;SDS011;9635;52.078;8.648;2023-03-31T22:14:18;5.70;;;2.50;;
19004;SDS011;9635;52.078;8.648;2023-03-31T22:19:23;2.65;;;1.67;;
19004;SDS011;9635;52.078;8.648;2023-03-31T22:24:26;3.55;;;2.38;;
19004;SDS011;9635;52.078;8.648;2023-03-31T22:29:28;7.18;;;2.35;;
19004;SDS011;9635;52.078;8.648;2023-03-31T22:34:32;7.53;;;2.20;;
19004;SDS011;9635;52.078;8.648;2023-03-31T22:39:35;6.70;;;1.75;;
19004;SDS011;9635;52.078;8.648;2023-03-31T22:44:38;6.50;;;1.80;;
19004;SDS011;9635;52.078;8.648;2023-03-31T22:49:43;6.75;;;1.60;;
19004;SDS011;9635;52.078;8.648;2023-03-31T22:54:46;3.30;;;1.42;;
19004;SDS011;9635;52.078;8.648;2023-03-31T22:59:49;8.70;;;1.23;;
19004;SDS011;9635;52.078;8.648;2023-03-31T23:04:53;5.40;;;1.80;;
19004;SDS011;9635;52.078;8.648;2023-03-31T23:09:56;7.38;;;1.60;;
19004;SDS011;9635;52.078;8.648;2023-03-31T23:14:59;3.47;;;1.83;;
19004;SDS011;9635;52.078;8.648;2023-03-31T23:20:04;2.67;;;2.13;;
19004;SDS011;9635;52.078;8.648;2023-03-31T23:25:08;7.45;;;2.25;;
19004;SDS011;9635;52.078;8.648;2023-03-31T23:30:11;4.35;;;1.65;;
19004;SDS011;9635;52.078;8.648;2023-03-31T23:35:16;4.45;;;1.83;;
19004;SDS011;9635;52.078;8.648;2023-03-31T23:40:19;7.65;;;2.45;;
19004;SDS011;9635;52.078;8.648;2023-03-31T23:45:22;3.42;;;2.55;;
19004;SDS011;9635;52.078;8.648;2023-03-31T23:50:26;2.88;;;1.83;;
19004;SDS011;9635;52.078;8.648;2023-03-31T23:55:29;5.18;;;2.20;;
